Time;durP1;ratioP1;P1;durP2;ratioP2;P2;SDS_P1;SDS_P2;PMS_P1;PMS_P2;Temp;Humidity;BMP_temperature;BMP_pressure;BME280_temperature;BME280_humidity;BME280_pressure;Samples;Min_cycle;Max_cycle;Signal;HPM_P1;HPM_P2
2023/08/01 00:01:02;;;;;;;0.10;0.10;;;;;;;15.06;100.00;99775.59;5053872;28;20024;-49
2023/08/01 00:03:28;;;;;;;0.10;0.10;;;;;;;15.05;100.00;99784.25;5053786;28;20467;-49
2023/08/01 00:05:54;;;;;;;0.10;0.10;;;;;;;15.05;100.00;99772.13;5054304;28;20025;-51
2023/08/01 00:08:20;;;;;;;0.10;0.10;;;;;;;15.03;100.00;99758.31;5053491;28;20103;-47
2023/08/01 00:10:46;;;;;;;0.10;0.10;;;;;;;15.01;100.00;99754.00;5053485;28;20469;-50
2023/08/01 00:13:11;;;;;;;0.10;0.10;;;;;;;15.01;100.00;99754.00;5054263;28;20029;-49
2023/08/01 00:15:37;;;;;;;0.10;0.10;;;;;;;14.95;100.00;99763.56;5053154;28;20017;-48
2023/08/01 00:18:02;;;;;;;0.10;0.10;;;;;;;14.94;100.00;99753.19;5053758;28;20037;-48
2023/08/01 00:20:27;;;;;;;0.10;0.10;;;;;;;14.92;100.00;99739.34;5053520;28;20079;-47
2023/08/01 00:22:53;;;;;;;0.10;0.10;;;;;;;14.88;100.00;99740.25;5053304;28;20033;-49
2023/08/01 00:25:18;;;;;;;0.10;0.10;;;;;;;14.89;100.00;99750.63;5053577;28;20100;-48
2023/08/01 00:27:44;;;;;;;0.10;0.10;;;;;;;14.84;100.00;99752.38;5053383;28;20465;-49
2023/08/01 00:30:09;;;;;;;0.10;0.10;;;;;;;14.85;100.00;99761.00;5053055;28;20480;-48
2023/08/01 00:32:36;;;;;;;0.10;0.10;;;;;;;14.81;100.00;99761.03;5053254;28;20029;-50
2023/08/01 00:35:01;;;;;;;0.10;0.10;;;;;;;14.80;100.00;99748.06;5053657;28;20100;-49
2023/08/01 00:37:26;;;;;;;0.10;0.10;;;;;;;14.79;100.00;99747.19;5052958;28;20455;-49
2023/08/01 00:39:51;;;;;;;0.20;0.20;;;;;;;14.79;100.00;99739.41;5053460;28;20052;-50
2023/08/01 00:42:17;;;;;;;0.10;0.10;;;;;;;14.76;100.00;99736.84;5053415;28;20060;-49
2023/08/01 00:44:42;;;;;;;0.10;0.10;;;;;;;14.75;100.00;99740.31;5052508;28;20048;-49
2023/08/01 00:47:08;;;;;;;0.15;0.15;;;;;;;14.75;100.00;99740.31;5053021;28;20127;-45
2023/08/01 00:49:34;;;;;;;0.10;0.10;;;;;;;14.70;100.00;99731.69;5052659;28;20473;-47
2023/08/01 00:51:59;;;;;;;0.10;0.10;;;;;;;14.67;100.00;99736.91;5052820;28;20123;-48
2023/08/01 00:54:25;;;;;;;0.17;0.17;;;;;;;14.66;100.00;99735.16;5052664;28;20021;-50
2023/08/01 00:56:51;;;;;;;0.10;0.10;;;;;;;14.65;100.00;99738.63;5052766;28;20063;-49
2023/08/01 00:59:16;;;;;;;0.10;0.10;;;;;;;14.64;100.00;99737.78;5053023;28;20048;-49
2023/08/01 01:01:42;;;;;;;0.10;0.10;;;;;;;14.65;100.00;99743.81;5053034;28;20025;-48
2023/08/01 01:04:08;;;;;;;0.10;0.10;;;;;;;14.64;100.00;99742.09;5052584;28;20104;-49
2023/08/01 01:06:58;;;;;;;0.10;0.10;;;;;;;14.67;100.00;99744.69;5052432;28;20362;-49
2023/08/01 01:09:23;;;;;;;0.10;0.10;;;;;;;14.66;100.00;99735.16;5052987;28;20083;-49
2023/08/01 01:11:48;;;;;;;0.10;0.10;;;;;;;14.64;100.00;99736.91;5052533;28;20025;-47
2023/08/01 01:14:14;;;;;;;0.10;0.10;;;;;;;14.60;100.00;99740.34;5052777;28;20417;-49
2023/08/01 01:16:39;;;;;;;0.20;0.20;;;;;;;14.54;100.00;99730.88;5052650;28;20039;-49
2023/08/01 01:19:09;;;;;;;0.10;0.10;;;;;;;14.54;100.00;99725.69;5052317;28;20115;-50
2023/08/01 01:21:39;;;;;;;0.10;0.10;;;;;;;14.54;100.00;99732.59;5052289;28;20021;-47
2023/08/01 01:24:06;;;;;;;0.10;0.10;;;;;;;14.54;100.00;99730.00;5052854;28;20354;-48
2023/08/01 01:26:33;;;;;;;0.20;0.20;;;;;;;14.55;100.00;99731.72;5052102;28;20029;-51
2023/08/01 01:29:00;;;;;;;0.10;0.10;;;;;;;14.51;100.00;99735.22;5052568;28;20029;-47
2023/08/01 01:31:25;;;;;;;0.10;0.10;;;;;;;14.47;100.00;99735.25;5052573;28;20033;-48
2023/08/01 01:33:51;;;;;;;0.10;0.10;;;;;;;14.46;100.00;99733.50;5052038;28;20032;-47
2023/08/01 01:36:17;;;;;;;0.10;0.10;;;;;;;14.43;100.00;99732.66;5052691;28;20032;-48
2023/08/01 01:38:42;;;;;;;0.10;0.10;;;;;;;14.41;100.00;99727.47;5052562;28;20044;-49
2023/08/01 01:41:07;;;;;;;0.10;0.10;;;;;;;14.42;100.00;99724.03;5052165;28;20451;-47
2023/08/01 01:43:33;;;;;;;0.10;0.10;;;;;;;14.42;100.00;99721.44;5052012;28;20077;-49
2023/08/01 01:45:58;;;;;;;0.10;0.10;;;;;;;14.41;100.00;99730.06;5052060;28;20052;-48
2023/08/01 01:48:23;;;;;;;0.10;0.10;;;;;;;14.38;100.00;99722.28;5051919;28;20111;-46
2023/08/01 01:50:48;;;;;;;0.15;0.15;;;;;;;14.38;100.00;99718.84;5052780;28;20027;-48
2023/08/01 01:53:14;;;;;;;0.10;0.10;;;;;;;14.38;100.00;99718.84;5052202;28;20025;-48
2023/08/01 01:55:40;;;;;;;0.10;0.10;;;;;;;14.35;100.00;99714.53;5051930;28;20021;-51
2023/08/01 01:58:06;;;;;;;0.10;0.10;;;;;;;14.35;100.00;99718.88;5052661;28;20051;-47
2023/08/01 02:00:31;;;;;;;0.10;0.10;;;;;;;14.33;100.00;99727.50;5051665;28;20025;-50
2023/08/01 02:02:56;;;;;;;0.10;0.10;;;;;;;14.33;100.00;99719.72;5055565;28;20067;-46
2023/08/01 02:05:22;;;;;;;0.10;0.10;;;;;;;14.31;100.00;99724.03;5056664;28;20021;-47
2023/08/01 02:07:47;;;;;;;0.10;0.10;;;;;;;14.29;100.00;99722.31;5055723;28;20159;-46
2023/08/01 02:10:12;;;;;;;0.15;0.15;;;;;;;14.26;100.00;99715.44;5056114;28;20029;-46
2023/08/01 02:12:38;;;;;;;0.10;0.10;;;;;;;14.22;100.00;99718.06;5056015;28;20041;-47
2023/08/01 02:15:03;;;;;;;0.10;0.10;;;;;;;14.18;100.00;99717.19;5055702;28;20033;-49
2023/08/01 02:17:29;;;;;;;0.10;0.10;;;;;;;14.12;100.00;99707.69;5055600;28;20029;-49
2023/08/01 02:19:55;;;;;;;0.10;0.10;;;;;;;14.10;100.00;99716.34;5056323;28;20044;-49
2023/08/01 02:22:20;;;;;;;0.10;0.10;;;;;;;14.07;100.00;99719.84;5055735;28;20483;-49
2023/08/01 02:24:45;;;;;;;0.15;0.15;;;;;;;14.04;100.00;99727.59;5055703;28;20529;-50
2023/08/01 02:27:10;;;;;;;0.10;0.10;;;;;;;14.03;100.00;99728.47;5055992;28;20029;-49
2023/08/01 02:29:36;;;;;;;0.10;0.10;;;;;;;14.03;100.00;99730.19;5055119;28;20024;-47
2023/08/01 02:32:01;;;;;;;0.10;0.10;;;;;;;14.01;100.00;99725.03;5055736;28;20112;-48
2023/08/01 02:34:27;;;;;;;0.10;0.10;;;;;;;13.99;100.00;99721.56;5055550;28;20113;-48
2023/08/01 02:36:53;;;;;;;0.20;0.20;;;;;;;13.96;100.00;99721.59;5055421;28;20037;-46
2023/08/01 02:39:18;;;;;;;0.10;0.10;;;;;;;13.96;100.00;99729.34;5055683;28;20029;-46
2023/08/01 02:41:43;;;;;;;0.17;0.17;;;;;;;13.95;100.00;99735.41;5055482;28;20032;-48
2023/08/01 02:44:09;;;;;;;0.20;0.20;;;;;;;13.94;100.00;99734.53;5055076;28;20037;-48
2023/08/01 02:46:34;;;;;;;0.10;0.10;;;;;;;13.92;100.00;99736.25;5055348;28;20025;-50
2023/08/01 02:48:59;;;;;;;0.20;0.20;;;;;;;13.92;100.00;99740.59;5055513;28;20111;-49
2023/08/01 02:51:24;;;;;;;0.20;0.20;;;;;;;13.92;100.00;99743.19;5054662;28;20025;-50
2023/08/01 02:53:50;;;;;;;0.20;0.20;;;;;;;13.91;100.00;99738.88;5055588;28;20113;-49
2023/08/01 02:56:15;;;;;;;0.17;0.17;;;;;;;13.92;100.00;99743.19;5055475;28;20432;-49
2023/08/01 02:58:42;;;;;;;0.10;0.10;;;;;;;13.92;100.00;99740.59;5054540;28;20033;-50
2023/08/01 03:01:13;;;;;;;0.17;0.17;;;;;;;13.91;100.00;99739.72;5055398;28;20050;-46
2023/08/01 03:03:38;;;;;;;0.20;0.20;;;;;;;13.92;100.00;99740.59;5054767;28;20025;-47
2023/08/01 03:06:04;;;;;;;0.20;0.20;;;;;;;13.92;100.00;99735.41;5055184;28;20028;-49
2023/08/01 03:08:29;;;;;;;0.20;0.20;;;;;;;13.90;100.00;99730.22;5055195;28;20055;-49
2023/08/01 03:10:55;;;;;;;0.20;0.20;;;;;;;13.90;100.00;99732.81;5054800;28;20017;-49
2023/08/01 03:13:20;;;;;;;0.13;0.13;;;;;;;13.89;100.00;99731.09;5054619;28;20025;-48
2023/08/01 03:15:46;;;;;;;0.20;0.20;;;;;;;13.90;100.00;99734.53;5054956;28;20025;-49
2023/08/01 03:18:11;;;;;;;0.20;0.20;;;;;;;13.89;100.00;99736.28;5054545;28;20116;-48
2023/08/01 03:20:37;;;;;;;0.20;0.20;;;;;;;13.89;100.00;99731.09;5054800;28;20045;-49
2023/08/01 03:23:02;;;;;;;0.15;0.15;;;;;;;13.89;100.00;99730.22;5055121;28;20111;-49
2023/08/01 03:25:27;;;;;;;0.10;0.10;;;;;;;13.90;100.00;99731.94;5054086;28;20051;-49
2023/08/01 03:27:54;;;;;;;0.10;0.10;;;;;;;13.91;100.00;99737.13;5054732;28;20036;-48
2023/08/01 03:30:20;;;;;;;0.10;0.10;;;;;;;13.91;100.00;99738.88;5054761;28;20025;-50
2023/08/01 03:32:46;;;;;;;0.20;0.20;;;;;;;13.91;100.00;99729.34;5054101;28;20108;-48
2023/08/01 03:35:11;;;;;;;0.20;0.20;;;;;;;13.92;100.00;99732.81;5054834;28;20104;-49
2023/08/01 03:37:37;;;;;;;0.10;0.10;;;;;;;13.93;100.00;99739.72;5054541;28;20048;-49
2023/08/01 03:40:03;;;;;;;0.13;0.13;;;;;;;13.95;100.00;99738.84;5054136;28;20033;-47
2023/08/01 03:42:29;;;;;;;0.17;0.17;;;;;;;13.95;100.00;99731.06;5054002;28;20024;-49
2023/08/01 03:44:54;;;;;;;0.20;0.20;;;;;;;13.95;100.00;99736.25;5054525;28;20040;-49
2023/08/01 03:47:19;;;;;;;0.20;0.20;;;;;;;13.97;100.00;99741.44;5053849;28;20029;-50
2023/08/01 03:49:45;;;;;;;0.10;0.10;;;;;;;13.99;100.00;99742.28;5054121;28;20040;-47
2023/08/01 03:52:10;;;;;;;0.20;0.20;;;;;;;13.98;100.00;99735.38;5054701;28;20025;-49
2023/08/01 03:54:35;;;;;;;0.20;0.20;;;;;;;13.99;100.00;99743.16;5053376;28;20025;-48
2023/08/01 03:57:02;;;;;;;0.10;0.10;;;;;;;13.99;100.00;99747.47;5054178;28;20507;-49
2023/08/01 03:59:27;;;;;;;0.10;0.10;;;;;;;14.00;100.00;99749.19;5054049;28;20025;-49
2023/08/01 04:01:53;;;;;;;0.20;0.20;;;;;;;14.00;100.00;99749.19;5053302;28;20439;-48
2023/08/01 04:04:20;;;;;;;0.13;0.13;;;;;;;14.02;100.00;99752.66;5054317;28;20423;-48
2023/08/01 04:06:45;;;;;;;0.20;0.20;;;;;;;14.03;100.00;99746.59;5053480;28;20025;-49
2023/08/01 04:09:10;;;;;;;0.20;0.20;;;;;;;14.04;100.00;99737.97;5053996;28;20027;-46
2023/08/01 04:11:35;;;;;;;0.20;0.20;;;;;;;14.04;100.00;99743.13;5053762;28;20532;-50
2023/08/01 04:14:01;;;;;;;0.20;0.20;;;;;;;14.05;100.00;99744.88;5053413;28;20445;-50
2023/08/01 04:16:26;;;;;;;0.20;0.20;;;;;;;14.06;100.00;99744.00;5053253;28;20036;-49
2023/08/01 04:18:51;;;;;;;0.10;0.10;;;;;;;14.08;100.00;99739.66;5053955;28;20025;-48
2023/08/01 04:21:18;;;;;;;0.20;0.20;;;;;;;14.07;100.00;99745.75;5053601;28;20350;-47
2023/08/01 04:23:43;;;;;;;0.20;0.20;;;;;;;14.11;100.00;99752.63;5053267;28;20033;-49
2023/08/01 04:26:09;;;;;;;0.10;0.10;;;;;;;14.10;100.00;99750.91;5053440;28;20115;-44
2023/08/01 04:28:35;;;;;;;0.20;0.20;;;;;;;14.13;100.00;99743.13;5052772;28;20032;-48
2023/08/01 04:31:00;;;;;;;0.13;0.13;;;;;;;14.12;100.00;99738.78;5053297;28;20028;-48
2023/08/01 04:33:25;;;;;;;0.10;0.10;;;;;;;14.13;100.00;99737.94;5053501;28;20469;-45
2023/08/01 04:35:51;;;;;;;0.17;0.17;;;;;;;14.15;100.00;99738.81;5053090;28;20405;-49
2023/08/01 04:38:17;;;;;;;0.10;0.10;;;;;;;14.15;100.00;99736.22;5053299;28;20028;-48
2023/08/01 04:40:42;;;;;;;0.13;0.13;;;;;;;14.16;100.00;99750.00;5053186;28;20032;-49
2023/08/01 04:43:08;;;;;;;0.20;0.20;;;;;;;14.16;100.00;99748.31;5052793;28;20060;-50
2023/08/01 04:45:33;;;;;;;0.20;0.20;;;;;;;14.18;100.00;99748.28;5052817;28;20025;-45
2023/08/01 04:47:58;;;;;;;0.20;0.20;;;;;;;14.20;100.00;99745.69;5053572;28;20531;-46
2023/08/01 04:50:23;;;;;;;0.20;0.20;;;;;;;14.24;100.00;99752.59;5052438;28;20473;-47
2023/08/01 04:52:49;;;;;;;0.10;0.10;;;;;;;14.27;100.00;99760.38;5053209;28;20059;-48
2023/08/01 04:55:14;;;;;;;0.20;0.20;;;;;;;14.26;100.00;99756.91;5053394;28;20100;-48
2023/08/01 04:57:39;;;;;;;0.20;0.20;;;;;;;14.25;100.00;99764.69;5052269;28;20131;-49
2023/08/01 05:00:05;;;;;;;0.20;0.20;;;;;;;14.25;100.00;99759.50;5052759;28;20021;-47
2023/08/01 05:02:31;;;;;;;0.20;0.20;;;;;;;14.21;100.00;99762.97;5051490;28;20036;-49
2023/08/01 05:04:56;;;;;;;0.20;0.20;;;;;;;14.20;100.00;99758.66;5052445;28;20024;-50
2023/08/01 05:07:22;;;;;;;0.10;0.10;;;;;;;14.19;100.00;99759.50;5053097;28;20044;-48
2023/08/01 05:09:47;;;;;;;0.20;0.20;;;;;;;14.16;100.00;99761.25;5052917;28;20021;-48
2023/08/01 05:12:12;;;;;;;0.10;0.10;;;;;;;14.16;100.00;99758.66;5052159;28;20107;-49
2023/08/01 05:14:38;;;;;;;0.20;0.20;;;;;;;14.15;100.00;99767.31;5052539;28;20029;-46
2023/08/01 05:17:03;;;;;;;0.10;0.10;;;;;;;14.13;100.00;99769.03;5052495;28;20021;-47
2023/08/01 05:19:29;;;;;;;0.20;0.20;;;;;;;14.13;100.00;99768.16;5052229;28;20037;-49
2023/08/01 05:21:55;;;;;;;0.10;0.10;;;;;;;14.11;100.00;99768.19;5052867;28;20040;-50
2023/08/01 05:24:20;;;;;;;0.20;0.20;;;;;;;14.09;100.00;99764.72;5052362;28;20075;-47
2023/08/01 05:26:46;;;;;;;0.10;0.10;;;;;;;14.09;100.00;99772.50;5052477;28;20025;-47
2023/08/01 05:29:11;;;;;;;0.20;0.20;;;;;;;14.10;100.00;99779.41;5052715;28;20061;-50
2023/08/01 05:31:37;;;;;;;0.10;0.10;;;;;;;14.12;100.00;99764.69;5052134;28;20100;-49
2023/08/01 05:34:02;;;;;;;0.10;0.10;;;;;;;14.14;100.00;99770.75;5052568;28;20099;-48
2023/08/01 05:36:27;;;;;;;0.20;0.20;;;;;;;14.13;100.00;99775.94;5052237;28;20037;-48
2023/08/01 05:38:53;;;;;;;0.20;0.20;;;;;;;14.11;100.00;99783.72;5052153;28;20025;-50
2023/08/01 05:41:18;;;;;;;0.20;0.20;;;;;;;14.09;100.00;99775.09;5052437;28;20492;-45
2023/08/01 05:43:43;;;;;;;0.20;0.20;;;;;;;14.10;100.00;99775.94;5052235;28;20463;-49
2023/08/01 05:46:10;;;;;;;0.10;0.10;;;;;;;14.14;100.00;99783.72;5052070;28;20025;-49
2023/08/01 05:48:35;;;;;;;0.20;0.20;;;;;;;14.19;100.00;99773.34;5052247;28;20025;-50
2023/08/01 05:51:00;;;;;;;0.10;0.10;;;;;;;14.26;100.00;99774.19;5052498;28;20044;-49
2023/08/01 05:53:27;;;;;;;0.20;0.20;;;;;;;14.28;100.00;99775.03;5051567;28;20044;-47
2023/08/01 05:55:52;;;;;;;0.20;0.20;;;;;;;14.30;100.00;99783.66;5052300;28;20047;-48
2023/08/01 05:58:17;;;;;;;0.10;0.10;;;;;;;14.33;100.00;99788.84;5052309;28;20053;-50
2023/08/01 06:00:43;;;;;;;0.10;0.10;;;;;;;14.36;100.00;99782.78;5051712;28;20026;-45
2023/08/01 06:03:08;;;;;;;0.10;0.10;;;;;;;14.43;100.00;99789.69;5052205;28;20025;-48
2023/08/01 06:05:33;;;;;;;0.10;0.10;;;;;;;14.47;100.00;99791.38;5052255;28;20063;-50
2023/08/01 06:07:59;;;;;;;0.13;0.13;;;;;;;14.56;100.00;99786.16;5051589;28;20053;-48
2023/08/01 06:10:24;;;;;;;0.20;0.20;;;;;;;14.66;100.00;99789.63;5052162;28;20016;-45
2023/08/01 06:12:50;;;;;;;0.10;0.10;;;;;;;14.64;100.00;99788.75;5052204;28;20528;-49
2023/08/01 06:15:15;;;;;;;0.10;0.10;;;;;;;14.65;100.00;99790.50;5051524;28;20033;-45
2023/08/01 06:17:40;;;;;;;0.10;0.10;;;;;;;14.63;100.00;99797.41;5052063;28;20033;-49
2023/08/01 06:20:06;;;;;;;0.10;0.10;;;;;;;14.71;100.00;99798.25;5052366;28;20025;-47
2023/08/01 06:22:32;;;;;;;0.10;0.10;;;;;;;14.77;100.00;99800.81;5050978;28;20400;-44
2023/08/01 06:24:57;;;;;;;0.10;0.10;;;;;;;14.81;100.00;99807.72;5052265;28;20013;-44
2023/08/01 06:27:22;;;;;;;0.10;0.10;;;;;;;14.91;100.00;99802.47;5051223;28;20079;-45
2023/08/01 06:29:48;;;;;;;0.20;0.20;;;;;;;14.86;100.00;99805.13;5051992;28;20025;-50
2023/08/01 06:32:13;;;;;;;0.20;0.20;;;;;;;14.95;100.00;99799.88;5052123;28;20040;-50
2023/08/01 06:34:38;;;;;;;0.10;0.10;;;;;;;14.95;100.00;99804.19;5051512;28;20032;-46
2023/08/01 06:37:04;;;;;;;0.10;0.10;;;;;;;15.01;100.00;99798.97;5051871;28;20020;-47
2023/08/01 06:39:30;;;;;;;0.10;0.10;;;;;;;15.08;100.00;99802.38;5051784;28;20075;-45
2023/08/01 06:41:55;;;;;;;0.10;0.10;;;;;;;15.14;100.00;99805.84;5051731;28;20046;-48
2023/08/01 06:44:21;;;;;;;0.10;0.10;;;;;;;15.15;100.00;99797.16;5051572;28;20523;-46
2023/08/01 06:46:46;;;;;;;0.10;0.10;;;;;;;15.11;100.00;99800.63;5051980;28;20040;-49
2023/08/01 06:49:11;;;;;;;0.10;0.10;;;;;;;15.18;100.00;99808.41;5054926;28;20082;-50
2023/08/01 06:51:37;;;;;;;0.10;0.10;;;;;;;15.21;100.00;99806.66;5055146;28;20067;-50
2023/08/01 06:54:02;;;;;;;0.10;0.10;;;;;;;15.28;100.00;99818.69;5055608;28;20036;-49
2023/08/01 06:56:27;;;;;;;0.10;0.10;;;;;;;15.42;100.00;99823.81;5054743;28;20013;-49
2023/08/01 06:58:53;;;;;;;0.17;0.17;;;;;;;15.56;100.00;99828.06;5055026;28;20077;-49
2023/08/01 07:01:19;;;;;;;0.20;0.20;;;;;;;15.79;100.00;99825.28;5055650;28;20036;-45
2023/08/01 07:03:45;;;;;;;0.10;0.10;;;;;;;15.71;100.00;99817.56;5054496;28;20070;-48
2023/08/01 07:06:10;;;;;;;0.10;0.10;;;;;;;15.74;100.00;99822.72;5055233;28;20032;-50
2023/08/01 07:08:36;;;;;;;0.10;0.10;;;;;;;15.77;100.00;99829.63;5055167;28;20021;-49
2023/08/01 07:11:02;;;;;;;0.10;0.10;;;;;;;15.89;100.00;99826.09;5054600;28;20061;-50
2023/08/01 07:13:27;;;;;;;0.10;0.10;;;;;;;15.86;100.00;99820.94;5054677;28;20053;-50
2023/08/01 07:15:53;;;;;;;0.10;0.10;;;;;;;15.83;100.00;99827.00;5055024;28;20064;-48
2023/08/01 07:18:18;;;;;;;0.10;0.10;;;;;;;15.90;100.00;99833.00;5054420;28;20036;-48
2023/08/01 07:20:44;;;;;;;0.17;0.17;;;;;;;16.13;100.00;99830.22;5054679;28;20066;-45
2023/08/01 07:23:09;;;;;;;0.10;0.10;;;;;;;16.37;100.00;99823.91;5054841;28;20035;-49
2023/08/01 07:25:35;;;;;;;0.10;0.10;;;;;;;16.31;100.00;99823.97;5053764;28;20071;-45
2023/08/01 07:28:02;;;;;;;0.03;0.03;;;;;;;16.14;100.00;99821.53;5054932;28;20017;-49
2023/08/01 07:30:28;;;;;;;0.10;0.10;;;;;;;16.06;100.00;99824.22;5054651;28;20025;-48
2023/08/01 07:32:53;;;;;;;0.10;0.10;;;;;;;16.03;100.00;99823.38;5054168;28;20112;-46
2023/08/01 07:35:18;;;;;;;0.10;0.10;;;;;;;16.03;100.00;99826.81;5054794;28;20060;-49
2023/08/01 07:37:44;;;;;;;0.10;0.10;;;;;;;16.16;100.00;99824.13;5053776;28;20035;-49
2023/08/01 07:40:09;;;;;;;0.10;0.10;;;;;;;16.35;100.00;99830.00;5054344;28;20059;-44
2023/08/01 07:42:35;;;;;;;0.10;0.10;;;;;;;16.63;100.00;99840.97;5053880;28;20465;-46
2023/08/01 07:45:01;;;;;;;0.10;0.10;;;;;;;16.63;100.00;99841.81;5054075;28;20021;-49
2023/08/01 07:47:26;;;;;;;0.10;0.10;;;;;;;16.56;100.00;99836.69;5054130;28;20051;-49
2023/08/01 07:49:52;;;;;;;0.10;0.10;;;;;;;16.43;100.00;99833.38;5054758;28;20059;-49
2023/08/01 07:52:17;;;;;;;0.10;0.10;;;;;;;16.21;100.00;99825.78;5053930;28;20451;-49
2023/08/01 07:54:42;;;;;;;0.10;0.10;;;;;;;16.02;100.00;99832.88;5053829;28;20445;-50
2023/08/01 07:57:08;;;;;;;0.10;0.10;;;;;;;15.86;100.00;99831.31;5054319;28;20516;-49
2023/08/01 07:59:33;;;;;;;0.10;0.10;;;;;;;15.76;100.00;99827.88;5052416;28;20028;-46
2023/08/01 08:01:58;;;;;;;0.10;0.10;;;;;;;15.93;100.00;99822.56;5054093;28;20059;-49
2023/08/01 08:04:23;;;;;;;0.10;0.10;;;;;;;16.08;100.00;99832.00;5053993;28;20066;-46
2023/08/01 08:06:49;;;;;;;0.10;0.10;;;;;;;16.23;100.00;99830.97;5053637;28;20032;-48
2023/08/01 08:09:14;;;;;;;0.10;0.10;;;;;;;16.39;100.00;99832.53;5053916;28;20377;-49
2023/08/01 08:11:40;;;;;;;0.10;0.10;;;;;;;16.45;100.00;99829.88;5053983;28;20112;-47
2023/08/01 08:14:05;;;;;;;0.10;0.10;;;;;;;16.52;100.00;99832.41;5053657;28;20059;-48
2023/08/01 08:16:30;;;;;;;0.10;0.10;;;;;;;16.44;100.00;99841.16;5053305;28;20462;-45
2023/08/01 08:18:56;;;;;;;0.10;0.10;;;;;;;16.54;100.00;99836.72;5053737;28;20021;-46
2023/08/01 08:21:21;;;;;;;0.10;0.10;;;;;;;16.58;100.00;99845.34;5053092;28;20048;-47
2023/08/01 08:23:46;;;;;;;0.10;0.10;;;;;;;16.63;100.00;99838.34;5053422;28;20025;-46
2023/08/01 08:26:12;;;;;;;0.10;0.10;;;;;;;16.77;100.00;99839.06;5053733;28;20017;-46
2023/08/01 08:28:37;;;;;;;0.10;0.10;;;;;;;16.75;100.00;99843.41;5052778;28;20134;-49
2023/08/01 08:31:03;;;;;;;0.10;0.10;;;;;;;16.94;100.00;99838.88;5053851;28;20385;-49
2023/08/01 08:33:29;;;;;;;0.10;0.10;;;;;;;17.17;100.00;99849.84;5053333;28;20040;-50
2023/08/01 08:35:54;;;;;;;0.10;0.10;;;;;;;17.38;100.00;99856.53;5052662;28;20392;-50
2023/08/01 08:38:20;;;;;;;0.10;0.10;;;;;;;17.28;100.00;99850.56;5053417;28;20029;-47
2023/08/01 08:41:36;;;;;;;0.10;0.10;;;;;;;17.05;100.00;99862.13;5053174;28;20025;-48
2023/08/01 08:44:06;;;;;;;0.10;0.10;;;;;;;16.73;100.00;99863.38;5030069;28;20045;-48
2023/08/01 08:46:38;;;;;;;0.10;0.10;;;;;;;16.53;100.00;99865.34;5053282;28;20025;-48
2023/08/01 08:49:04;;;;;;;0.00;0.00;;;;;;;16.27;100.00;99869.06;5052814;28;20017;-46
2023/08/01 08:51:31;;;;;;;0.10;0.10;;;;;;;16.11;100.00;99877.00;5052732;28;20408;-48
2023/08/01 08:53:57;;;;;;;0.10;0.10;;;;;;;15.97;100.00;99881.44;5053206;28;20031;-50
2023/08/01 08:56:23;;;;;;;0.10;0.10;;;;;;;15.86;100.00;99873.75;5052513;28;20100;-44
2023/08/01 08:58:49;;;;;;;0.10;0.10;;;;;;;15.77;100.00;99871.19;5053217;28;20456;-47
2023/08/01 09:01:15;;;;;;;0.10;0.10;;;;;;;15.71;100.00;99874.72;5053280;28;20083;-50
2023/08/01 09:03:41;;;;;;;0.10;0.10;;;;;;;15.69;100.00;99873.84;5051993;28;20021;-48
2023/08/01 09:06:14;;;;;;;0.00;0.00;;;;;;;15.68;100.00;99872.09;5053055;28;20421;-49
2023/08/01 09:08:40;;;;;;;0.10;0.10;;;;;;;15.82;100.00;99872.06;5052619;28;20385;-45
2023/08/01 09:11:05;;;;;;;0.10;0.10;;;;;;;15.99;100.00;99874.50;5051973;28;20079;-49
2023/08/01 09:13:31;;;;;;;0.10;0.10;;;;;;;16.23;100.00;99867.34;5052732;28;20025;-49
2023/08/01 09:15:57;;;;;;;0.10;0.10;;;;;;;16.42;100.00;99876.72;5053049;28;20070;-50
2023/08/01 09:18:22;;;;;;;0.10;0.10;;;;;;;16.51;100.00;99874.91;5051586;28;20029;-47
2023/08/01 09:20:49;;;;;;;0.00;0.00;;;;;;;16.57;100.00;99877.44;5052656;28;20072;-49
2023/08/01 09:23:16;;;;;;;0.00;0.00;;;;;;;16.76;100.00;99888.50;5052432;28;20033;-50
2023/08/01 09:25:43;;;;;;;0.05;0.05;;;;;;;16.93;100.00;99885.75;5052361;28;20166;-46
2023/08/01 09:28:22;;;;;;;0.10;0.10;;;;;;;16.97;100.00;99882.22;5052867;28;20096;-49
2023/08/01 09:30:56;;;;;;;0.10;0.10;;;;;;;17.05;100.00;99880.38;5052070;28;20079;-49
2023/08/01 09:33:22;;;;;;;0.10;0.10;;;;;;;17.11;100.00;99895.06;5052464;28;20047;-50
2023/08/01 09:35:51;;;;;;;0.10;0.10;;;;;;;17.04;100.00;99894.28;5052812;28;20021;-44
2023/08/01 09:38:17;;;;;;;0.00;0.00;;;;;;;16.91;100.00;99896.19;5052012;28;20039;-49
2023/08/01 09:40:44;;;;;;;0.10;0.10;;;;;;;16.78;100.00;99895.41;5052093;28;20409;-49
2023/08/01 09:43:13;;;;;;;0.10;0.10;;;;;;;16.79;100.00;99904.94;5052269;28;20473;-50
2023/08/01 09:45:54;;;;;;;0.10;0.10;;;;;;;16.72;100.00;99903.28;5051365;28;20025;-45
2023/08/01 09:48:25;;;;;;;0.10;0.10;;;;;;;16.66;100.00;99903.34;5052514;28;20408;-50
2023/08/01 09:50:50;;;;;;;0.10;0.10;;;;;;;16.65;100.00;99893.81;5052568;28;20545;-49
2023/08/01 09:53:16;;;;;;;0.10;0.10;;;;;;;16.50;100.00;99906.97;5051693;28;20134;-47
2023/08/01 09:55:45;;;;;;;0.10;0.10;;;;;;;16.46;100.00;99912.22;5052162;28;20276;-49
2023/08/01 09:58:13;;;;;;;0.10;0.10;;;;;;;16.49;100.00;99915.66;5052351;28;20091;-46
2023/08/01 10:00:38;;;;;;;0.10;0.10;;;;;;;16.31;100.00;99912.38;5051463;28;20035;-50
2023/08/01 10:03:04;;;;;;;0.10;0.10;;;;;;;16.17;100.00;99914.22;5052428;28;20396;-50
2023/08/01 10:05:32;;;;;;;0.10;0.10;;;;;;;16.22;100.00;99909.84;5051543;28;20142;-49
2023/08/01 10:08:02;;;;;;;0.10;0.10;;;;;;;16.69;100.00;99913.72;5052167;28;20025;-49
2023/08/01 10:10:28;;;;;;;0.10;0.10;;;;;;;16.83;100.00;99920.53;5051921;28;20061;-45
2023/08/01 10:12:55;;;;;;;0.08;0.08;;;;;;;17.35;100.00;99914.72;5051966;28;20063;-50
2023/08/01 10:15:21;;;;;;;0.10;0.10;;;;;;;17.61;100.00;99916.97;5052188;28;20072;-50
2023/08/01 10:17:46;;;;;;;0.08;0.08;;;;;;;18.34;100.00;99917.59;5052123;28;20052;-49
2023/08/01 10:20:15;;;;;;;0.03;0.03;;;;;;;18.63;100.00;99924.91;5051727;28;20021;-49
2023/08/01 10:22:41;;;;;;;0.10;0.10;;;;;;;19.05;100.00;99926.75;5052804;28;20066;-48
2023/08/01 10:25:09;;;;;;;0.10;0.10;;;;;;;19.44;100.00;99925.94;5055929;28;20040;-49
2023/08/01 10:27:35;;;;;;;0.00;0.00;;;;;;;19.08;100.00;99927.53;5054807;28;20025;-46
2023/08/01 10:30:03;;;;;;;0.00;0.00;;;;;;;18.75;100.00;99935.09;5056014;28;20021;-48
2023/08/01 10:32:33;;;;;;;0.00;0.00;;;;;;;18.31;100.00;99939.38;5055738;28;20033;-49
2023/08/01 10:34:59;;;;;;;0.08;0.08;;;;;;;17.86;100.00;99941.81;5055051;28;20587;-49
2023/08/01 10:37:24;;;;;;;0.00;0.00;;;;;;;17.60;100.00;99936.06;5055633;28;20112;-49
2023/08/01 10:39:57;;;;;;;0.10;0.10;;;;;;;17.41;100.00;99939.81;5055887;28;20032;-49
2023/08/01 10:42:22;;;;;;;0.10;0.10;;;;;;;17.21;100.00;99932.25;5054988;28;20026;-45
2023/08/01 10:44:47;;;;;;;0.05;0.05;;;;;;;17.08;100.00;99940.22;5055638;28;20041;-50
2023/08/01 10:47:13;;;;;;;0.10;0.10;;;;;;;17.04;100.00;99930.72;5055656;28;20029;-49
2023/08/01 10:49:38;;;;;;;0.10;0.10;;;;;;;17.38;100.00;99940.72;5054598;28;20017;-45
2023/08/01 10:52:30;;;;;;;0.10;0.10;;;;;;;18.14;100.00;99933.56;5055582;28;20132;-50
2023/08/01 10:54:58;;;;;;;0.10;0.10;;;;;;;18.37;100.00;99931.44;5052942;28;20029;-45
2023/08/01 10:57:23;;;;;;;0.10;0.10;;;;;;;19.46;100.00;99918.91;5055006;28;20036;-50
2023/08/01 10:59:48;;;;;;;0.10;0.10;;;;;;;19.93;100.00;99926.59;5055501;28;20021;-50
2023/08/01 11:02:21;;;;;;;0.00;0.00;;;;;;;19.82;100.00;99939.91;5054971;28;20028;-49
2023/08/01 11:04:58;;;;;;;0.10;0.10;;;;;;;19.37;100.00;99939.13;5054737;28;20017;-49
2023/08/01 11:07:24;;;;;;;0.00;0.00;;;;;;;19.52;100.00;99937.06;5055408;28;20067;-48
2023/08/01 11:09:49;;;;;;;0.00;0.00;;;;;;;20.13;100.00;99947.03;5054759;28;20480;-48
2023/08/01 11:12:15;;;;;;;0.00;0.00;;;;;;;20.09;100.00;99943.66;5055363;28;20071;-49
2023/08/01 11:14:40;;;;;;;0.00;0.00;;;;;;;19.95;96.18;99950.94;5054932;28;20388;-50
2023/08/01 11:17:06;;;;;;;0.00;0.00;;;;;;;19.51;97.53;99951.91;5054177;28;20021;-50
2023/08/01 11:19:31;;;;;;;0.00;0.00;;;;;;;19.19;99.34;99949.97;5054965;28;20028;-50